AirNav   Air Wisconsin pilot careers
 
 1263 users online  

49A Gilmer County Airport
Ellijay, Georgia, USA

GOING TO ELLIJAY?


FAA INFORMATION EFFECTIVE 29 MARCH 2018

Location

FAA Identifier: 49A
Lat/Long: 34-37-41.5000N / 084-31-35.6000W
34-37.691667N / 084-31.593333W
34.6281944 / -84.5265556
(estimated)
Elevation: 1485.5 ft. / 453 m (estimated)
Variation: 02W (1985)
From city: 4 miles S of ELLIJAY, GA
Time zone: UTC -4 (UTC -5 during Standard Time)
Zip code: 30540

Airport Operations

Airport use: Open to the public
Control tower: no
ARTCC: ATLANTA CENTER
FSS: MACON FLIGHT SERVICE STATION
NOTAMs facility: MCN (NOTAM-D service available)
Attendance: MON-SAT 0900 - 1700, ALL SUN 0800 - 1200
Wind indicator: lighted
Segmented circle: yes
Lights: ACTIVATE RWY 03/21 MIRL - CTAF
Beacon: white-green (lighted land airport)
Operates sunset to sunrise.

Airport Communications

CTAF/UNICOM: 123.0
WX AWOS-3: 118.075 (706 276-4513)
WX AWOS-3PT at JZP (11 nm S): 118.55 ((706) 253-9008)
WX AWOS-3PT at DNN (18 nm W): 127.65 (706-278-7010)
WX AWOS-3 at CNI (20 nm S): 119.825 (770-704-6235)

Nearby radio navigation aids

VOR radial/distance  VOR name  Freq  Var
HRSr238/35.5HARRIS VORTAC109.8000E
GQOr122/36.8CHOO CHOO VORTAC115.8001E

 
NDB name  Hdg/Dist  Freq  Var  ID
CHERO000/22.641505WDJD -.. .--- -..
CALHOUN060/24.032305WOUK --- ..- -.-
CARTERSVILLE035/30.130804WEVZ . ...- --..
FLOWERY BRANCH313/39.936503WFKV ..-. -.- ...-

Airport Services

Fuel available: 100LL
24 HR CREDIT CARD SVC AVBL.
Parking: hangars and tiedowns
Airframe service: NONE
Powerplant service: NONE
Bottled oxygen: NONE
Bulk oxygen: NONE

Runway Information

Runway 3/21

Dimensions: 3507 x 75 ft. / 1069 x 23 m
Surface: asphalt, in good condition
Weight bearing capacity: 
Single wheel: 30.0
Double wheel: 41.0
Runway edge lights: medium intensity
Gradient: NE
RUNWAY 3  RUNWAY 21
Latitude: 34-37.437185N34-37.946385N
Longitude: 084-31.758510W084-31.427385W
Elevation: 1457.7 ft.1485.5 ft.
Gradient: 0.8% UP0.9%
Traffic pattern: leftleft
Markings: nonprecision, in good conditionnonprecision, in good condition
Touchdown point: yes, no lightsyes, no lights
Obstructions: 25 ft. trees, 725 ft. from runway, 121 ft. right of centerline, 21:1 slope to clear26 ft. trees, 585 ft. from runway, 71 ft. right of centerline, 15:1 slope to clear

Airport Ownership and Management from official FAA records

Ownership: Publicly-owned
Owner: GILMER COUNTY
1 BROAD STREET, SUITE 106
ELLIJAY, GA 30540
Phone 706-635-4361
Manager: JIM SMITH
117 BRETT DICKEY MEMORIAL DRIVE
ELLIJAY, GA 30536
Phone (706) 635-4589

Airport Operational Statistics

Aircraft based on the field: 15
Single engine airplanes: 14
Multi engine airplanes: 1
    
Aircraft operations: avg 58/week *
66% local general aviation
34% transient general aviation
* for 12-month period ending 31 December 2015

Instrument Procedures

There are no published instrument procedures at 49A.

Some nearby airports with instrument procedures:

KJZP - Pickens County Airport (11 nm S)
KDNN - Dalton Municipal Airport (18 nm W)
KCNI - Cherokee County Airport (20 nm S)
KCZL - Tom B David Field Airport (23 nm SW)
1A3 - Martin Campbell Field Airport (25 nm N)
 
Loc | Ops | Rwys | IFR | FBO | Links
Com | Nav | Svcs | Stats | Notes

AirNav Hotels Sweepstakes
 
Area around 49A (Gilmer County Airport)
 
Road maps at: MapQuest Bing Google
 
Aerial photo
WARNING: Photo may not be current or correct
Aerial photo of 49A (Gilmer County Airport)
Do you have a better or more recent aerial photo of Gilmer County Airport that you would like to share? If so, please send us your photo.

 
Sectional chart

 
Airport distance calculator
Flying to Gilmer County Airport? Find the distance to fly.

From to 49A

Sunrise and sunset
Times for 19-Apr-2018
 Local
(UTC-4)
 Zulu
(UTC)
Morning civil twilight06:3610:36
Sunrise07:0311:03
Sunset20:1200:12
Evening civil twilight20:3800:38

Current date and time
Zulu (UTC)  19-Apr-2018 22:22:33
Local (UTC-4)  19-Apr-2018 18:22:33
 
METAR
K49A 192155Z AUTO 34009G16KT 300V360 10SM CLR 14/00 A3017 RMK AO2 T01351005
KJZP 
11nm S 
192155Z AUTO 31013G19KT 10SM CLR A3016 RMK AO2 PNO
KCNI 
20nm S 
192155Z AUTO 30012G18KT 10SM CLR 15/M03 A3014 RMK AO2
TAF
KRYY 
37nm S 
191952Z 1920/2018 32012G20KT P6SM FEW050 FM200000 33010KT P6SM SKC FM200900 03005KT P6SM SKC FM201400 09009KT P6SM SKC
KCHA 
41nm NW 
191916Z 1919/2018 01016KT P6SM SCT050 FM200000 01009KT P6SM SKC FM200600 01005KT P6SM SKC
KMGE 
43nm S 
191300Z 1913/2019 30010G15KT 9999 SKC QNH2997INS BECMG 1914/1915 33012G20KT 9999 SKC QNH3006INS TEMPO 1915/1922 32015G25KT BECMG 1923/1924 03009KT 9999 SKC QNH3018INS TX18/1920Z TN04/2011Z
KPDK 
46nm S 
191952Z 1920/2018 31013G22KT P6SM SKC FM200000 33010KT P6SM SKC FM200900 03006KT P6SM SKC FM201400 08009KT P6SM SKC
NOTAMs
Click for the latest NOTAMs
NOTAMs are issued by the DoD/FAA and will open in a separate window not controlled by AirNav.

 

 
 

FBO, Fuel Providers, and Aircraft Ground Support

  
 Business Name 
 
 Contact 
 
 Services / Description 
 
Fuel Prices
 
Comments
  
Gilmer County Airport 706-635-8500
no information available

If you are affiliated with Gilmer County Airport and would like to show here your services, contact info, web link, logo, and more, click here
100LL
SS $5.36 
 Updated 02-Apr-2018
 
   write
SS=Self service
Update Fuel Prices
 

Would you like to see your business listed on this page?

 If your business provides an interesting product or service to pilots, flight crews, aircraft, or users of the Gilmer County Airport, you should consider listing it here.  To start the listing process, click on the button below
 
Add a business
 

Other Pages about Gilmer County Airport

Explore Gilmer County - Gilmer County, Georgia Chamber of Commerce
Gilmer County Website
North Georgia Mountain Outfitters
Cartecay Bicycle Shop
 
Update a link
 
Copyright © AirNav, LLC. All rights reserved. Privacy Policy  Contact